createdAt,value
2023-01-17T00:00:40.961Z,94139.44
2023-01-17T00:03:07.757Z,94137.28
2023-01-17T00:05:33.992Z,94143.22
2023-01-17T00:08:00.430Z,94150.59
2023-01-17T00:10:26.648Z,94158.72
2023-01-17T00:12:52.987Z,94166.88
2023-01-17T00:15:19.211Z,94159.09
2023-01-17T00:17:45.586Z,94160.03
2023-01-17T00:20:11.799Z,94153.03
2023-01-17T00:22:38.129Z,94170.66
2023-01-17T00:25:05.510Z,94170.84
2023-01-17T00:27:31.696Z,94176.31
2023-01-17T00:29:58.036Z,94186.00
2023-01-17T00:32:24.828Z,94197.56
2023-01-17T00:34:51.094Z,94206.47
2023-01-17T00:37:17.321Z,94196.47
2023-01-17T00:39:43.881Z,94212.25
2023-01-17T00:42:10.272Z,94205.25
2023-01-17T00:44:36.550Z,94223.66
2023-01-17T00:47:02.917Z,94226.94
2023-01-17T00:49:29.117Z,94224.09
2023-01-17T00:51:55.680Z,94230.78
2023-01-17T00:54:21.925Z,94245.16
2023-01-17T00:56:48.596Z,94249.50
2023-01-17T00:59:15.073Z,94245.16
2023-01-17T01:01:41.479Z,94264.31
2023-01-17T01:04:07.948Z,94269.47
2023-01-17T01:06:34.152Z,94271.19
2023-01-17T01:09:00.577Z,94268.38
2023-01-17T01:11:27.111Z,94270.56
2023-01-17T01:13:54.428Z,94259.47
2023-01-17T01:16:21.001Z,94273.34
2023-01-17T01:18:47.216Z,94279.25
2023-01-17T01:21:13.425Z,94277.22
2023-01-17T01:23:39.646Z,94282.38
2023-01-17T01:26:05.951Z,94279.56
2023-01-17T01:28:32.189Z,94291.56
2023-01-17T01:30:58.542Z,94284.22
2023-01-17T01:33:26.017Z,94284.03
2023-01-17T01:35:52.256Z,94292.31
2023-01-17T01:38:18.481Z,94297.75
2023-01-17T01:40:45.179Z,94307.09
2023-01-17T01:43:11.374Z,94304.28
2023-01-17T01:45:38.607Z,94295.38
2023-01-17T01:48:04.857Z,94303.16
2023-01-17T01:50:31.143Z,94303.78
2023-01-17T01:52:57.364Z,94299.06
2023-01-17T01:55:23.705Z,94307.31
2023-01-17T01:57:49.908Z,94311.84
2023-01-17T02:00:16.164Z,94323.84
2023-01-17T02:02:42.354Z,94318.38
2023-01-17T02:05:08.658Z,94321.63
2023-01-17T02:07:34.873Z,94333.59
2023-01-17T02:10:01.062Z,94331.56
2023-01-17T02:12:27.409Z,94342.78
2023-01-17T02:14:54.418Z,94345.69
2023-01-17T02:17:20.942Z,94343.97
2023-01-17T02:19:47.196Z,94348.00
2023-01-17T02:22:13.409Z,94339.59
2023-01-17T02:24:39.605Z,94352.31
2023-01-17T02:27:05.854Z,94360.09
2023-01-17T02:29:32.093Z,94349.81
2023-01-17T02:31:58.294Z,94353.81
2023-01-17T02:34:24.524Z,94357.88
2023-01-17T02:36:50.724Z,94366.41
2023-01-17T02:39:16.992Z,94364.34
2023-01-17T02:41:43.158Z,94366.53
2023-01-17T02:44:09.431Z,94369.78
2023-01-17T02:46:36.297Z,94356.84
2023-01-17T02:49:03.900Z,94368.00
2023-01-17T02:51:30.354Z,94369.41
2023-01-17T02:53:56.909Z,94365.50
2023-01-17T02:56:23.125Z,94366.88
2023-01-17T02:58:49.338Z,94359.56
2023-01-17T03:01:15.663Z,94365.44
2023-01-17T03:03:41.954Z,94364.94
2023-01-17T03:06:08.159Z,94369.78
2023-01-17T03:08:34.395Z,94377.22
2023-01-17T03:11:00.591Z,94372.25
2023-01-17T03:13:26.854Z,94389.78
2023-01-17T03:15:53.249Z,94384.78
2023-01-17T03:18:20.365Z,94386.94
2023-01-17T03:20:46.613Z,94396.53
2023-01-17T03:23:13.187Z,94405.56
2023-01-17T03:25:40.276Z,94400.28
2023-01-17T03:28:06.486Z,94406.16
2023-01-17T03:30:33.404Z,94409.38
2023-01-17T03:32:59.691Z,94405.19
2023-01-17T03:35:26.439Z,94411.84
2023-01-17T03:37:52.998Z,94421.66
2023-01-17T03:40:19.245Z,94421.16
2023-01-17T03:42:45.448Z,94429.66
2023-01-17T03:45:11.642Z,94416.00
2023-01-17T03:47:37.856Z,94440.34
2023-01-17T03:50:04.124Z,94431.94
2023-01-17T03:52:31.393Z,94440.47
2023-01-17T03:54:57.571Z,94443.41
2023-01-17T03:57:23.810Z,94446.34
2023-01-17T03:59:50.148Z,94456.91
2023-01-17T04:02:16.927Z,94463.25
2023-01-17T04:04:43.241Z,94452.22
2023-01-17T04:07:09.495Z,94450.66
2023-01-17T04:09:35.684Z,94470.25
2023-01-17T04:12:01.907Z,94474.72
2023-01-17T04:14:28.123Z,94486.69
2023-01-17T04:16:54.379Z,94485.09
2023-01-17T04:19:20.695Z,94484.31
2023-01-17T04:21:46.913Z,94485.41
2023-01-17T04:24:14.432Z,94479.13
2023-01-17T04:26:41.317Z,94498.72
2023-01-17T04:29:07.573Z,94513.28
2023-01-17T04:31:33.873Z,94511.72
2023-01-17T04:34:00.091Z,94510.16
2023-01-17T04:36:26.303Z,94510.75
2023-01-17T04:38:53.048Z,94512.88
2023-01-17T04:41:19.293Z,94516.63
2023-01-17T04:43:45.779Z,94520.59
2023-01-17T04:46:14.003Z,94535.69
2023-01-17T04:48:40.268Z,94533.06
2023-01-17T04:51:06.476Z,94533.06
2023-01-17T04:53:33.018Z,94543.63
2023-01-17T04:55:59.362Z,94547.31
2023-01-17T04:58:25.585Z,94547.63
2023-01-17T05:00:51.867Z,94550.03
2023-01-17T05:03:18.461Z,94550.03
2023-01-17T05:05:45.574Z,94564.31
2023-01-17T05:08:11.835Z,94578.59
2023-01-17T05:10:38.057Z,94568.31
2023-01-17T05:13:04.327Z,94574.97
2023-01-17T05:15:30.582Z,94563.13
2023-01-17T05:17:56.839Z,94579.25
2023-01-17T05:20:23.098Z,94578.75
2023-01-17T05:22:49.419Z,94584.63
2023-01-17T05:25:16.546Z,94586.78
2023-01-17T05:27:42.734Z,94585.97
2023-01-17T05:30:09.041Z,94610.84
2023-01-17T05:32:35.223Z,94608.47
2023-01-17T05:35:01.411Z,94617.47
2023-01-17T05:37:27.702Z,94616.66
2023-01-17T05:39:53.962Z,94611.69
2023-01-17T05:42:20.161Z,94626.47
2023-01-17T05:44:46.371Z,94627.53
2023-01-17T05:47:12.601Z,94629.41
2023-01-17T05:49:38.805Z,94633.88
2023-01-17T05:52:05.010Z,94634.94
2023-01-17T05:54:31.196Z,94638.97
2023-01-17T05:56:57.445Z,94643.44
2023-01-17T05:59:36.397Z,94633.16
2023-01-17T06:02:04.121Z,94657.72
2023-01-17T06:04:30.489Z,94661.44
2023-01-17T06:06:56.860Z,94662.50
2023-01-17T06:09:23.154Z,94673.88
2023-01-17T06:11:49.475Z,94678.63
2023-01-17T06:14:15.659Z,94687.63
2023-01-17T06:16:43.097Z,94695.53
2023-01-17T06:19:09.323Z,94696.63
2023-01-17T06:21:35.572Z,94707.97
2023-01-17T06:24:03.996Z,94706.69
2023-01-17T06:26:32.579Z,94708.53
2023-01-17T06:28:58.757Z,94712.25
2023-01-17T06:31:24.987Z,94721.25
2023-01-17T06:33:51.221Z,94725.75
2023-01-17T06:36:17.469Z,94714.66
2023-01-17T06:38:44.488Z,94721.78
2023-01-17T06:41:10.840Z,94726.31
2023-01-17T06:43:37.586Z,94727.38
2023-01-17T06:46:03.764Z,94729.22
2023-01-17T06:48:29.970Z,94738.22
2023-01-17T06:50:56.173Z,94751.41
2023-01-17T06:53:22.388Z,94752.50
2023-01-17T06:55:48.644Z,94763.31
2023-01-17T06:58:15.527Z,94760.94
2023-01-17T07:00:42.805Z,94759.41
2023-01-17T07:03:09.911Z,94768.09
2023-01-17T07:05:36.105Z,94763.09
2023-01-17T07:08:02.395Z,94769.44
2023-01-17T07:10:29.092Z,94774.72
2023-01-17T07:12:55.352Z,94778.44
2023-01-17T07:15:21.751Z,94765.50
2023-01-17T07:17:48.137Z,94782.13
2023-01-17T07:20:14.985Z,94794.69
2023-01-17T07:22:41.365Z,94793.75
2023-01-17T07:25:07.552Z,94803.88
2023-01-17T07:27:34.025Z,94803.91
2023-01-17T07:30:00.328Z,94808.53
2023-01-17T07:32:26.881Z,94813.16
2023-01-17T07:34:53.076Z,94813.47
2023-01-17T07:37:19.276Z,94818.19
2023-01-17T07:39:45.527Z,94825.06
2023-01-17T07:42:14.655Z,94821.13
2023-01-17T07:44:41.384Z,94824.28
2023-01-17T07:47:07.653Z,94830.09
2023-01-17T07:49:33.882Z,94813.25
2023-01-17T07:52:00.110Z,94818.72
2023-01-17T07:54:26.357Z,94826.88
2023-01-17T07:56:53.999Z,94829.19
2023-01-17T07:59:20.207Z,94834.91
2023-01-17T08:01:46.746Z,94840.34
2023-01-17T08:04:13.072Z,94842.94
2023-01-17T08:06:39.340Z,94839.56
2023-01-17T08:09:06.025Z,94846.03
2023-01-17T08:11:32.232Z,94852.47
2023-01-17T08:13:58.477Z,94854.97
2023-01-17T08:16:24.874Z,94856.25
2023-01-17T08:18:51.166Z,94852.72
2023-01-17T08:21:17.410Z,94864.78
2023-01-17T08:23:43.773Z,94860.31
2023-01-17T08:26:09.995Z,94863.00
2023-01-17T08:28:37.376Z,94860.69
2023-01-17T08:31:04.114Z,94869.50
2023-01-17T08:33:33.068Z,94871.88
2023-01-17T08:35:59.312Z,94870.31
2023-01-17T08:38:25.533Z,94871.13
2023-01-17T08:40:51.887Z,94886.97
2023-01-17T08:43:18.145Z,94877.16
2023-01-17T08:45:44.454Z,94885.66
2023-01-17T08:48:10.718Z,94885.66
2023-01-17T08:50:36.964Z,94896.81
2023-01-17T08:53:03.188Z,94888.06
2023-01-17T08:55:30.881Z,94896.38
2023-01-17T08:57:57.201Z,94896.97
2023-01-17T09:00:23.437Z,94900.59
2023-01-17T09:02:49.795Z,94903.09
2023-01-17T09:05:16.019Z,94905.91
2023-01-17T09:07:42.495Z,94911.72
2023-01-17T09:10:08.808Z,94910.16
2023-01-17T09:12:35.569Z,94906.72
2023-01-17T09:15:01.795Z,94916.09
2023-01-17T09:17:28.036Z,94921.56
2023-01-17T09:19:54.279Z,94916.56
2023-01-17T09:22:20.504Z,94925.97
2023-01-17T09:24:46.867Z,94920.19
2023-01-17T09:27:13.071Z,94916.56
2023-01-17T09:29:40.059Z,94928.16
2023-01-17T09:32:06.504Z,94925.03
2023-01-17T09:34:34.064Z,94924.53
2023-01-17T09:37:01.544Z,94923.28
2023-01-17T09:39:27.860Z,94926.56
2023-01-17T09:41:54.838Z,94922.94
2023-01-17T09:44:21.106Z,94922.00
2023-01-17T09:46:47.720Z,94926.38
2023-01-17T09:49:17.649Z,94923.25
2023-01-17T09:51:43.832Z,94923.88
2023-01-17T09:54:10.090Z,94938.56
2023-01-17T09:56:36.315Z,94930.13
2023-01-17T09:59:02.612Z,94929.94
2023-01-17T10:01:28.993Z,94932.88
2023-01-17T10:03:56.173Z,94927.38
2023-01-17T10:06:22.426Z,94926.16
2023-01-17T10:08:49.529Z,94925.34
2023-01-17T10:11:16.107Z,94929.13
2023-01-17T10:13:42.303Z,94905.75
2023-01-17T10:16:08.562Z,94925.50
2023-01-17T10:18:35.142Z,94921.28
2023-01-17T10:21:01.345Z,94928.94
2023-01-17T10:23:27.686Z,94927.22
2023-01-17T10:25:53.869Z,94929.44
2023-01-17T10:28:20.123Z,94934.03
2023-01-17T10:30:47.006Z,94939.53
2023-01-17T10:33:14.115Z,94943.19
2023-01-17T10:35:41.067Z,94944.00
2023-01-17T10:38:07.263Z,94949.97
2023-01-17T10:40:33.543Z,94946.34
2023-01-17T10:42:59.951Z,94940.41
2023-01-17T10:45:26.186Z,94944.81
2023-01-17T10:47:55.405Z,94948.25
2023-01-17T10:50:21.740Z,94946.69
2023-01-17T10:52:48.585Z,94951.84
2023-01-17T10:55:14.902Z,94954.34
2023-01-17T10:57:41.101Z,94959.84
2023-01-17T11:00:08.272Z,94960.00
2023-01-17T11:05:17.798Z,94963.59
2023-01-17T11:07:44.721Z,94957.00
2023-01-17T11:10:10.976Z,94957.97
2023-01-17T11:12:38.113Z,94948.69
2023-01-17T11:15:04.514Z,94948.69
2023-01-17T11:59:58.636Z,94951.41
2023-01-17T12:02:25.067Z,94958.94
2023-01-17T12:04:51.648Z,94959.38
2023-01-17T12:07:17.979Z,94948.09
2023-01-17T12:09:45.125Z,94945.59
2023-01-17T12:12:11.484Z,94938.53
2023-01-17T12:14:37.772Z,94952.66
2023-01-17T12:17:07.047Z,94955.16
2023-01-17T12:19:33.465Z,94955.16
2023-01-17T12:22:00.421Z,94958.41
2023-01-17T12:24:26.877Z,94952.47
2023-01-17T12:26:56.222Z,94958.72
2023-01-17T12:29:22.912Z,94958.13
2023-01-17T12:31:49.184Z,94958.72
2023-01-17T12:34:16.310Z,94964.34
2023-01-17T12:36:42.702Z,94960.59
2023-01-17T12:39:09.038Z,94961.84
2023-01-17T12:41:35.583Z,94962.59
2023-01-17T12:44:03.092Z,94965.94
2023-01-17T12:46:29.407Z,94974.56
2023-01-17T12:48:56.207Z,94976.25
2023-01-17T12:51:22.591Z,94968.75
2023-01-17T12:53:48.875Z,94959.81
2023-01-17T12:56:15.212Z,94966.41
2023-01-17T12:58:41.575Z,94973.50
2023-01-17T13:01:08.019Z,94965.66
2023-01-17T13:03:34.361Z,94967.38
2023-01-17T13:06:01.191Z,94962.03
2023-01-17T13:08:27.547Z,94965.84
2023-01-17T13:10:53.827Z,94965.97
2023-01-17T13:13:20.269Z,94965.03
2023-01-17T13:15:46.871Z,94959.56
2023-01-17T13:18:13.958Z,94964.75
2023-01-17T13:20:41.436Z,94968.47
2023-01-17T13:23:07.888Z,94970.53
2023-01-17T13:25:35.152Z,94969.72
2023-01-17T13:28:03.168Z,94973.19
2023-01-17T13:30:30.779Z,94975.06
2023-01-17T13:32:57.632Z,94968.94
2023-01-17T13:35:23.878Z,94972.25
2023-01-17T13:37:51.355Z,94971.91
2023-01-17T13:40:17.849Z,94977.88
2023-01-17T13:42:45.012Z,94966.28
2023-01-17T13:45:12.234Z,94966.91
2023-01-17T13:47:41.630Z,94969.72
2023-01-17T13:50:08.191Z,94964.53
2023-01-17T13:52:34.861Z,94950.28
2023-01-17T13:55:01.202Z,94958.13
2023-01-17T13:57:29.730Z,94957.97
2023-01-17T13:59:57.869Z,94950.59
2023-01-17T14:02:24.263Z,94946.19
2023-01-17T14:04:50.705Z,94941.16
2023-01-17T14:07:17.015Z,94942.28
2023-01-17T14:09:46.379Z,94944.16
2023-01-17T14:12:13.199Z,94950.88
2023-01-17T14:14:39.542Z,94940.84
2023-01-17T14:17:05.787Z,94935.84
2023-01-17T14:19:32.188Z,94944.16
2023-01-17T14:21:58.646Z,94952.91
2023-01-17T14:24:24.902Z,94946.97
2023-01-17T14:26:51.204Z,94957.47
2023-01-17T14:29:17.515Z,94965.78
2023-01-17T14:31:44.284Z,94965.94
2023-01-17T14:34:10.614Z,94959.50
2023-01-17T14:36:37.081Z,94959.22
2023-01-17T14:39:03.418Z,94969.72
2023-01-17T14:41:32.780Z,94960.03
2023-01-17T14:43:59.095Z,94959.41
2023-01-17T14:46:25.452Z,94968.63
2023-01-17T14:48:51.736Z,94962.53
2023-01-17T14:51:17.998Z,94964.41
2023-01-17T14:53:44.291Z,94970.06
2023-01-17T14:56:10.666Z,94975.41
2023-01-17T14:58:36.939Z,94978.38
2023-01-17T15:01:03.424Z,94975.25
2023-01-17T15:03:29.821Z,94979.59
2023-01-17T15:05:57.091Z,94973.31
2023-01-17T15:08:23.413Z,94976.28
2023-01-17T15:10:50.231Z,94975.81
2023-01-17T15:13:16.564Z,94979.13
2023-01-17T15:15:42.955Z,94973.94
2023-01-17T15:18:09.298Z,94974.91
2023-01-17T15:20:36.209Z,94971.59
2023-01-17T15:23:04.039Z,94966.41
2023-01-17T15:25:31.118Z,94971.28
2023-01-17T15:27:57.394Z,94968.44
2023-01-17T15:30:23.801Z,94970.16
2023-01-17T15:32:54.262Z,94976.44
2023-01-17T15:35:21.228Z,94970.16
2023-01-17T15:37:47.828Z,94975.63
2023-01-17T15:40:16.582Z,94978.91
2023-01-17T15:42:42.917Z,94977.97
2023-01-17T15:45:09.493Z,94969.81
2023-01-17T15:47:36.145Z,94980.28
2023-01-17T15:50:03.264Z,94984.34
2023-01-17T15:52:29.796Z,94982.00
2023-01-17T15:54:56.557Z,94972.13
2023-01-17T15:57:23.689Z,94975.72
2023-01-17T15:59:50.102Z,94982.13
2023-01-17T16:02:17.167Z,94983.84
2023-01-17T16:04:43.624Z,94978.06
2023-01-17T16:07:13.441Z,94986.63
2023-01-17T16:09:39.717Z,94986.94
2023-01-17T16:12:06.226Z,94989.91
2023-01-17T16:14:53.507Z,94994.44
2023-01-17T16:17:22.262Z,94993.69
2023-01-17T16:19:48.681Z,94991.03
2023-01-17T16:22:16.116Z,94991.78
2023-01-17T16:24:43.650Z,95003.53
2023-01-17T16:27:09.975Z,94999.00
2023-01-17T16:29:37.114Z,94997.44
2023-01-17T16:32:03.378Z,94993.22
2023-01-17T16:34:29.737Z,94997.44
2023-01-17T16:36:56.017Z,94993.22
2023-01-17T16:39:23.218Z,94984.41
2023-01-17T16:41:49.531Z,94988.69
2023-01-17T16:44:15.839Z,94991.34
2023-01-17T16:46:42.147Z,94985.22
2023-01-17T16:49:08.468Z,94986.78
2023-01-17T16:51:35.471Z,94991.78
2023-01-17T16:54:01.799Z,94982.56
2023-01-17T16:56:31.862Z,94984.59
2023-01-17T16:58:58.356Z,94982.75
2023-01-17T17:01:24.873Z,94989.84
2023-01-17T17:03:51.231Z,94984.25
2023-01-17T17:06:17.538Z,94994.91
2023-01-17T17:08:44.024Z,95001.81
2023-01-17T17:11:10.373Z,95001.38
2023-01-17T17:13:36.658Z,95000.44
2023-01-17T17:16:03.172Z,94998.72
2023-01-17T17:18:32.449Z,94998.88
2023-01-17T17:20:58.911Z,95005.44
2023-01-17T17:23:25.201Z,95003.09
2023-01-17T17:25:51.968Z,94996.50
2023-01-17T17:28:18.776Z,94993.69
2023-01-17T17:30:45.168Z,94993.53
2023-01-17T17:33:11.520Z,94998.69
2023-01-17T17:35:37.762Z,95005.44
2023-01-17T17:38:04.024Z,94996.94
2023-01-17T17:40:30.313Z,94998.06
2023-01-17T17:42:56.600Z,95002.59
2023-01-17T17:45:22.963Z,94994.44
2023-01-17T17:47:49.193Z,94995.84
2023-01-17T17:50:16.156Z,95002.09
2023-01-17T17:52:42.419Z,95011.47
2023-01-17T17:55:08.744Z,95006.78
2023-01-17T17:57:35.097Z,95008.50
2023-01-17T18:00:01.414Z,95000.06
2023-01-17T18:02:27.686Z,94997.22
2023-01-17T18:04:53.989Z,95005.81
2023-01-17T18:07:21.278Z,95010.06
2023-01-17T18:09:47.537Z,95008.00
2023-01-17T18:12:14.667Z,95006.91
2023-01-17T18:14:40.987Z,95012.56
2023-01-17T18:17:07.262Z,95019.34
2023-01-17T18:19:33.517Z,95021.69
2023-01-17T18:22:00.139Z,95026.72
2023-01-17T18:24:26.454Z,95034.75
2023-01-17T18:26:52.945Z,95036.63
2023-01-17T18:29:19.271Z,95039.78
2023-01-17T18:31:46.176Z,95042.47
2023-01-17T18:34:12.512Z,95040.13
2023-01-17T18:36:38.822Z,95051.91
2023-01-17T18:39:05.235Z,95047.06
2023-01-17T18:41:32.012Z,95055.38
2023-01-17T18:43:58.328Z,95061.81
2023-01-17T18:46:24.786Z,95063.19
2023-01-17T18:48:52.951Z,95063.50
2023-01-17T18:51:19.595Z,95065.41
2023-01-17T18:53:45.903Z,95074.81
2023-01-17T18:56:12.289Z,95067.75
2023-01-17T18:58:41.772Z,95062.88
2023-01-17T19:01:12.975Z,95070.56
2023-01-17T19:03:41.132Z,95083.59
2023-01-17T19:06:08.624Z,95087.66
2023-01-17T19:08:35.056Z,95087.22
2023-01-17T19:11:01.382Z,95083.13
2023-01-17T19:13:27.714Z,95087.53
2023-01-17T19:15:54.743Z,95075.13
2023-01-17T19:18:21.009Z,95071.03
2023-01-17T19:20:47.319Z,95072.63
2023-01-17T19:23:13.607Z,95074.19
2023-01-17T19:25:39.904Z,95082.34
2023-01-17T19:28:06.324Z,95088.31
2023-01-17T19:30:32.602Z,95090.34
2023-01-17T19:32:59.062Z,95097.06
2023-01-17T19:35:26.197Z,95094.72
2023-01-17T19:37:52.586Z,95095.69
2023-01-17T19:40:20.007Z,95101.59
2023-01-17T19:42:46.467Z,95097.53
2023-01-17T19:45:13.321Z,95103.00
2023-01-17T19:47:39.565Z,95101.25
2023-01-17T19:50:05.939Z,95104.06
2023-01-17T19:52:32.507Z,95109.53
2023-01-17T19:54:59.210Z,95108.28
2023-01-17T19:57:25.443Z,95108.41
2023-01-17T19:59:52.075Z,95108.72
2023-01-17T20:02:19.499Z,95108.13
2023-01-17T20:04:46.022Z,95104.50
2023-01-17T20:07:12.255Z,95106.41
2023-01-17T20:09:39.057Z,95098.44
2023-01-17T20:12:06.200Z,95100.38
2023-01-17T20:14:34.153Z,95100.38
2023-01-17T20:17:00.501Z,95099.75
2023-01-17T20:19:27.219Z,95104.31
2023-01-17T20:21:53.545Z,95094.72
2023-01-17T20:24:19.819Z,95100.09
2023-01-17T20:26:47.536Z,95099.63
2023-01-17T20:29:13.852Z,95102.28
2023-01-17T20:31:40.282Z,95103.38
2023-01-17T20:34:07.782Z,95101.31
2023-01-17T20:36:34.193Z,95106.81
2023-01-17T20:39:00.518Z,95107.59
2023-01-17T20:41:27.745Z,95106.66
2023-01-17T20:43:54.041Z,95110.75
2023-01-17T20:46:20.389Z,95116.25
2023-01-17T20:48:46.716Z,95106.81
2023-01-17T20:51:13.081Z,95116.56
2023-01-17T20:53:39.398Z,95125.81
2023-01-17T20:56:06.398Z,95117.81
2023-01-17T20:58:32.765Z,95127.06
2023-01-17T21:00:59.123Z,95141.19
2023-01-17T21:03:26.280Z,95128.31
2023-01-17T21:05:52.591Z,95123.88
2023-01-17T21:08:19.015Z,95141.66
2023-01-17T21:10:45.452Z,95147.09
2023-01-17T21:13:11.911Z,95148.84
2023-01-17T21:15:38.261Z,95147.56
2023-01-17T21:18:05.277Z,95151.97
2023-01-17T21:20:31.614Z,95154.72
2023-01-17T21:22:58.024Z,95161.28
2023-01-17T21:25:24.340Z,95159.53
2023-01-17T21:27:50.894Z,95169.25
2023-01-17T21:30:17.179Z,95169.09
2023-01-17T21:32:43.451Z,95167.31
2023-01-17T21:35:09.783Z,95177.03
2023-01-17T21:37:36.107Z,95171.84
2023-01-17T21:40:05.275Z,95182.03
2023-01-17T21:42:31.775Z,95181.06
2023-01-17T21:44:58.256Z,95183.56
2023-01-17T21:47:24.562Z,95189.50
2023-01-17T21:49:50.998Z,95183.19
2023-01-17T21:52:18.203Z,95191.81
2023-01-17T21:54:44.573Z,95196.16
2023-01-17T21:57:10.861Z,95201.00
2023-01-17T21:59:37.232Z,95200.06
2023-01-17T22:02:03.718Z,95194.25
2023-01-17T22:04:30.708Z,95202.81
2023-01-17T22:06:56.961Z,95208.75
2023-01-17T22:09:24.071Z,95214.69
2023-01-17T22:11:50.580Z,95215.31
2023-01-17T22:14:16.906Z,95206.34
2023-01-17T22:16:43.225Z,95207.72
2023-01-17T22:19:09.471Z,95212.88
2023-01-17T22:21:35.760Z,95208.97
2023-01-17T22:24:01.995Z,95202.63
2023-01-17T22:26:28.288Z,95208.06
2023-01-17T22:28:54.818Z,95202.69
2023-01-17T22:31:21.169Z,95198.38
2023-01-17T22:33:47.577Z,95206.72
2023-01-17T22:36:13.869Z,95203.41
2023-01-17T22:38:40.106Z,95209.31
2023-01-17T22:41:06.563Z,95205.44
2023-01-17T22:43:32.875Z,95211.78
2023-01-17T22:45:59.152Z,95223.50
2023-01-17T22:48:25.656Z,95214.44
2023-01-17T22:50:52.059Z,95223.66
2023-01-17T22:53:19.064Z,95213.03
2023-01-17T22:55:48.889Z,95216.13
2023-01-17T22:58:15.195Z,95210.50
2023-01-17T23:00:42.343Z,95217.84
2023-01-17T23:03:11.011Z,95218.50
2023-01-17T23:05:37.900Z,95195.41
2023-01-17T23:08:04.175Z,95206.59
2023-01-17T23:10:30.824Z,95202.53
2023-01-17T23:12:57.585Z,95206.13
2023-01-17T23:15:24.122Z,95202.03
2023-01-17T23:17:51.176Z,95201.09
2023-01-17T23:20:17.710Z,95206.81
2023-01-17T23:22:44.762Z,95206.97
2023-01-17T23:42:16.201Z,95187.00
2023-01-17T23:44:42.572Z,95180.47
2023-01-17T23:47:09.313Z,95178.16
2023-01-17T23:49:36.208Z,95176.13
2023-01-17T23:52:02.880Z,95173.03
2023-01-17T23:54:30.178Z,95165.69
2023-01-17T23:56:56.479Z,95169.47
2023-01-17T23:59:23.216Z,95156.56
